Nearby METAR Reports

 

KEWB - New Bedford, Massachusetts, USA
Distance from station: ESE 9mi, 15km
Updated: Tue, 28-Jun-2022 8:53pm EDT
Few Clouds
Few Clouds
 Wind from calm
Wind: Calm
Temperature: 66°F , 19°C
Dew Point: 57°F , 14°C
Humidity: 73%
Barometer: 30.14 inHg , 1020.7 hPa
Clouds: Few Clouds
Visibility: 10 miles , 16 km
Cloud details: Few Clouds 7000 ft
2022/06/29 00:53 KEWB 290053Z 00000KT 10SM FEW070 19/14 A3014 RMK AO2 SLP205 T01890144
KTAN - Taunton, Massachusetts, USA
Distance from station: NNE 11mi, 18km
Updated: Tue, 28-Jun-2022 8:52pm EDT
Clear
Clear
 Wind from calm
Wind: Calm
Temperature: 63°F , 17°C
Dew Point: 61°F , 16°C
Humidity: 94%
Barometer: 30.13 inHg , 1020.3 hPa
Clouds: Clear
Visibility: 10 miles , 16 km
2022/06/29 00:52 KTAN 290052Z AUTO 00000KT 10SM CLR 17/16 A3013 RMK AO2 SLP204 T01720156
 
KPVD - Providence/Green, Rhode Island, USA
Distance from station: W 16mi, 26km
Updated: Tue, 28-Jun-2022 8:51pm EDT
Few Clouds
Few Clouds
 Wind from SSW
Wind: SSW 7 mph , 11 km/h
Temperature: 70°F , 21°C
Dew Point: 57°F , 14°C
Humidity: 64%
Barometer: 30.14 inHg , 1020.7 hPa
Clouds: Few Clouds
Visibility: 10 miles , 16 km
Cloud details: Few Clouds 7000 ft
Few Clouds 25000 ft
2022/06/29 00:51 KPVD 290051Z 20006KT 10SM FEW070 FEW250 21/14 A3014 RMK AO2 SLP206 T02110139
KUUU - Newport, Rhode Island, USA
Distance from station: SSW 16mi, 27km
Updated: Tue, 28-Jun-2022 8:53pm EDT
Haze, Few clouds
Haze, Few clouds
 Wind from SSW
Wind: SSW 3 mph , 6 km/h
Temperature: 66°F , 19°C
Dew Point: 57°F , 14°C
Humidity: 73%
Barometer: 30.15 inHg , 1021 hPa
Summary: Haze
Clouds: Few Clouds
Visibility: 5 miles , 8 km
Cloud details: Few Clouds 6000 ft
2022/06/29 00:53 KUUU 290053Z AUTO 20003KT 5SM HZ FEW060 19/14 A3015 RMK AO2 SLP207 T01940144
 
KOQU - N. Kingston/Quon, Rhode Island, USA
Distance from station: WSW 18mi, 29km
Updated: Tue, 28-Jun-2022 8:50pm EDT
Few Clouds
Few Clouds
 Wind from WSW
Wind: WSW 12 mph , 19 km/h
Temperature: 73°F , 23°C
Dew Point: 55°F , 13°C
Humidity: 53%
Barometer: 30.15 inHg , 1021 hPa
Clouds: Few Clouds
Visibility: 10 miles , 16 km
Cloud details: Few Clouds 5000 ft
2022/06/29 00:50 KOQU 290050Z COR 25010KT 10SM FEW050 23/13 A3015
KPYM - Plymouth, Massachusetts, USA
Distance from station: ENE 23mi, 37km
Updated: Tue, 28-Jun-2022 8:52pm EDT
Clear
Clear
 Wind from SE
Wind: SE 3 mph , 6 km/h
Temperature: 68°F , 20°C
Dew Point: 61°F , 16°C
Humidity: 78%
Barometer: 30.15 inHg , 1021 hPa
Clouds: Clear
Visibility: 10 miles , 16 km
2022/06/29 00:52 KPYM 290052Z AUTO 14003KT 10SM CLR 20/16 A3015 RMK AO2 SLP208 T02000156
 
KSFZ - Pawtucket, Rhode Island, USA
Distance from station: WNW 23mi, 38km
Updated: Tue, 28-Jun-2022 8:56pm EDT
Clear
Clear
 Wind from NNW
Wind: NNW 3 mph , 6 km/h
Temperature: 64°F , 18°C
Dew Point: 59°F , 15°C
Humidity: 83%
Barometer: 30.16 inHg , 1021.3 hPa
Clouds: Clear
Visibility: 10 miles , 16 km
2022/06/29 00:56 KSFZ 290056Z AUTO 33003KT 10SM CLR 18/15 A3016 RMK AO2 SLP210 T01830150 $
KOWD - Norwood, Massachusetts, USA
Distance from station: N 31mi, 50km
Updated: Tue, 28-Jun-2022 8:53pm EDT
Clear
Clear
 Wind from E
Wind: E 6 mph , 9 km/h
Temperature: 68°F , 20°C
Dew Point: 57°F , 14°C
Humidity: 69%
Barometer: 30.13 inHg , 1020.3 hPa
Clouds: Clear
Visibility: 10 miles , 16 km
2022/06/29 00:53 KOWD 290053Z 09005KT 10SM CLR 20/14 A3013 RMK AO2 SLP203 T02000139
 
KFMH - Falmouth/Otis Ab, Massachusetts, USA
Distance from station: ESE 32mi, 51km
Updated: Tue, 28-Jun-2022 8:45pm EDT
Clear
Clear
 Wind from WSW
Wind: WSW 9 mph , 15 km/h
Temperature: 66°F , 19°C
Dew Point: 57°F , 14°C
Humidity: 73%
Barometer: 30.15 inHg , 1021 hPa
Clouds: Clear
Visibility: 10 miles , 16 km
2022/06/29 00:45 KFMH 290045Z 24008KT 10SM CLR 19/14 A3015
KMQE - East Milton, Massachusetts, USA
Distance from station: N 33mi, 53km
Updated: Thu, 01-Jul-2021 9:51am EDT
NOT Current

 Wind from WNW
Wind: WNW 9 mph , 15 km/h
Temperature: 75°F , 24°C
Dew Point: 70°F , 21°C
Humidity: 83%
Barometer: 29.86 inHg , 1011.2 hPa
2021/07/01 13:51 KMQE 011351Z AUTO 30008KT 24/21 A2986 RMK AO1 SLP116 T02440206
 
KGHG - Marshfield, Massachusetts, USA
Distance from station: NE 34mi, 55km
Updated: Tue, 28-Jun-2022 8:55pm EDT
Clear
Clear
 Wind from calm
Wind: Calm
Temperature: 66°F , 19°C
Dew Point: 59°F , 15°C
Humidity: 78%
Barometer: 30.14 inHg , 1020.7 hPa
Clouds: Clear
Visibility: 10 miles , 16 km
2022/06/29 00:55 KGHG 290055Z AUTO 00000KT 10SM CLR 19/15 A3014 RMK AO2
KMVY - Marthas Vineyard, Massachusetts, USA
Distance from station: SE 35mi, 56km
Updated: Tue, 28-Jun-2022 8:53pm EDT
Clear
Clear
 Wind from calm
Wind: Calm
Temperature: 63°F , 17°C
Dew Point: 59°F , 15°C
Humidity: 88%
Barometer: 30.16 inHg , 1021.3 hPa
Clouds: Clear
Visibility: 10 miles , 16 km
2022/06/29 00:53 KMVY 290053Z 00000KT 10SM CLR 17/15 A3016 RMK AO2 SLP211 T01720150
 
KBOS - Boston, Massachusetts, USA
Distance from station: N 44mi, 71km
Updated: Tue, 28-Jun-2022 8:54pm EDT
Few Clouds
Few Clouds
 Wind from ENE
Wind: ENE 5 mph , 7 km/h
Temperature: 66°F , 19°C
Dew Point: 61°F , 16°C
Humidity: 83%
Barometer: 30.15 inHg , 1021 hPa
Clouds: Few Clouds
Visibility: 10 miles , 16 km
Cloud details: Few Clouds 7000 ft
Few Clouds 25000 ft
2022/06/29 00:54 KBOS 290054Z 07004KT 10SM FEW070 FEW250 19/16 A3015 RMK AO2 SLP207 T01940156
KHYA - Hyannis, Massachusetts, USA
Distance from station: E 44mi, 71km
Updated: Tue, 28-Jun-2022 8:56pm EDT
Clear
Clear
 Wind from SW
Wind: SW 7 mph , 11 km/h
Temperature: 68°F , 20°C
Dew Point: 57°F , 14°C
Humidity: 69%
Barometer: 30.14 inHg , 1020.7 hPa
Clouds: Clear
Visibility: 10 miles , 16 km
2022/06/29 00:56 KHYA 290056Z 22006KT 10SM CLR 20/14 A3014 RMK AO2 SLP209 T02000144
 
KWST - Westerly, Rhode Island, USA
Distance from station: SW 44mi, 71km
Updated: Tue, 28-Jun-2022 8:53pm EDT
Clear
Clear
 Wind from S
Wind: S 5 mph , 7 km/h
Temperature: 68°F , 20°C
Dew Point: 55°F , 13°C
Humidity: 64%
Barometer: 30.15 inHg , 1021 hPa
Clouds: Clear
Visibility: 10 miles , 16 km
2022/06/29 00:53 KWST 290053Z AUTO 19004KT 10SM CLR 20/13 A3015 RMK AO2 SLP210 T02000133
KBID - Block Island, Rhode Island, USA
Distance from station: SSW 46mi, 74km
Updated: Tue, 28-Jun-2022 8:56pm EDT
Clear
Clear
 Wind from W
Wind: W 8 mph , 13 km/h
Temperature: 64°F , 18°C
Dew Point: 57°F , 14°C
Humidity: 78%
Barometer: 30.16 inHg , 1021.3 hPa
Clouds: Clear
Visibility: 10 miles , 16 km
2022/06/29 00:56 KBID 290056Z AUTO 26007KT 10SM CLR 18/14 A3016 RMK AO2 SLP215 T01780144